Windham, Montana
Current Conditions -  °F | °C
As of 9:54 AM on Saturday 20 Dec 2014 (Local Time) from KLWT Reporting Station
Clear Clear  
Wind Chill: 30°   Ceiling: Unl
Heat Index: 35°   Visibility: 10mi
Dew Point: 18°   Wind: 6mph
Humidity: 50%   Direction: 270°W
Pressure: 29.87"   Gusts: NA
Location:  47.1454°N, 110.159°W
Report Text: KLWT 201654Z AUTO 27005KT 10SM CLR 02/M08 A2987 RMK AO2 SLP129 T00171078
Loading
Personal Weather Stations






























Interactive Weather Map New forecast layout! Learn more

10-Day Weather Forecast

Advertisements
Track Severe Weather on mobile